| time (UTC) | temp F | wind direction | speed MPH | gust MPH | rain 1hr in | rain 24hr in | rain mn in | humidity % | barometer mb |
| 20260508120053 | 58 | 163 | 10.0 | 18.0 | 0.00 | 0.00 | 0.00 | 76 | 1017.4 |
| 20260508114551 | 58 | 156 | 9.0 | 14.0 | 0.00 | 0.00 | 0.00 | 78 | 1017.4 |
| 20260508113045 | 58 | 159 | 6.0 | 13.0 | 0.00 | 0.00 | 0.00 | 78 | 1017.4 |
| 20260508111545 | 57 | 121 | 8.0 | 13.0 | 0.00 | 0.00 | 0.00 | 79 | 1017.4 |
| 20260508110045 | 58 | 178 | 9.0 | 14.0 | 0.00 | 0.00 | 0.00 | 79 | 1017.3 |
| 20260508104542 | 58 | 150 | 5.0 | 10.0 | 0.00 | 0.00 | 0.00 | 80 | 1017.3 |
| 20260508103047 | 58 | 102 | 5.0 | 14.0 | 0.00 | 0.00 | 0.00 | 78 | 1017.3 |
| 20260508101539 | 58 | 183 | 6.0 | 10.0 | 0.00 | 0.00 | 0.00 | 81 | 1017.3 |
| 20260508100048 | 56 | 140 | 4.0 | 10.0 | 0.00 | 0.00 | 0.00 | 83 | 1017.4 |
| 20260508094531 | 54 | 180 | 4.0 | 10.0 | 0.00 | 0.00 | 0.00 | 85 | 1017.3 |
| 20260508093034 | 53 | 149 | 1.0 | 11.0 | 0.00 | 0.00 | 0.00 | 88 | 1017.3 |
| 20260508091523 | 52 | 198 | 2.0 | 5.0 | 0.00 | 0.00 | 0.00 | 88 | 1017.4 |
| 20260508090012 | 51 | 148 | 0.0 | 4.0 | 0.00 | 0.00 | 0.00 | 89 | 1017.4 |
| 20260508084508 | 51 | 152 | 1.0 | 5.0 | 0.00 | 0.00 | 0.00 | 89 | 1017.4 |
| 20260508083005 | 51 | 252 | 4.0 | 8.0 | 0.00 | 0.00 | 0.00 | 88 | 1017.4 |
| 20260508081502 | 50 | 167 | 5.0 | 14.0 | 0.00 | 0.00 | 0.00 | 89 | 1017.0 |
| 20260508080101 | 50 | 73 | 1.0 | 6.0 | 0.00 | 0.00 | 0.00 | 90 | 1016.9 |
| 20260508074602 | 50 | 63 | 1.0 | 8.0 | 0.00 | 0.00 | 0.00 | 90 | 1016.8 |
| 20260508073054 | 49 | 72 | 2.0 | 8.0 | 0.00 | 0.00 | 0.00 | 90 | 1016.8 |
| 20260508071549 | 49 | 176 | 5.0 | 13.0 | 0.00 | 0.00 | 0.00 | 91 | 1016.6 |
| 20260508070045 | 48 | 166 | 8.0 | 14.0 | 0.00 | 0.00 | 0.00 | 91 | 1016.4 |
| 20260508064542 | 48 | 162 | 8.0 | 13.0 | 0.00 | 0.00 | 0.00 | 92 | 1016.3 |
| 20260508063042 | 47 | 121 | 9.0 | 12.0 | 0.00 | 0.00 | 0.00 | 92 | 1016.3 |
| 20260508061543 | 47 | 174 | 9.0 | 14.0 | 0.00 | 0.00 | 0.00 | 92 | 1016.2 |
| 20260508060054 | 47 | 152 | 7.0 | 14.0 | 0.00 | 0.00 | 0.00 | 92 | 1016.1 |
| 20260508054611 | 47 | 173 | 9.0 | 15.0 | 0.00 | 0.00 | 0.00 | 91 | 1016.0 |
| 20260508053048 | 47 | 177 | 6.0 | 12.0 | 0.00 | 0.00 | 0.00 | 91 | 1015.9 |
| 20260508051535 | 47 | 136 | 8.0 | 14.0 | 0.00 | 0.00 | 0.00 | 91 | 1015.9 |
| 20260508050037 | 47 | 147 | 8.0 | 13.0 | 0.00 | 0.00 | 0.00 | 90 | 1015.8 |
| 20260508044534 | 47 | 180 | 5.0 | 8.0 | 0.00 | 0.00 | 0.00 | 90 | 1015.7 |
| 20260508043036 | 47 | 154 | 4.0 | 11.0 | 0.00 | 0.00 | 0.00 | 90 | 1015.6 |
| 20260508041532 | 47 | 158 | 5.0 | 10.0 | 0.00 | 0.00 | 0.00 | 90 | 1015.7 |
| 20260508040033 | 47 | 165 | 6.0 | 12.0 | 0.00 | 0.00 | 0.00 | 90 | 1015.5 |
| 20260508034537 | 47 | 158 | 5.0 | 15.0 | 0.00 | 0.00 | 0.00 | 89 | 1015.4 |
| 20260508033034 | 47 | 182 | 5.0 | 15.0 | 0.00 | 0.00 | 0.00 | 89 | 1015.5 |
| 20260508031534 | 48 | 158 | 4.0 | 11.0 | 0.00 | 0.00 | 0.00 | 88 | 1015.6 |
| 20260508030029 | 48 | 152 | 5.0 | 13.0 | 0.00 | 0.00 | 0.00 | 87 | 1015.6 |
| 20260508024528 | 48 | 169 | 5.0 | 15.0 | 0.00 | 0.00 | 0.00 | 86 | 1015.6 |
| 20260508023027 | 48 | 187 | 10.0 | 19.0 | 0.00 | 0.00 | 0.00 | 86 | 1015.5 |
| 20260508021527 | 48 | 158 | 11.0 | 18.0 | 0.00 | 0.00 | 0.00 | 86 | 1015.4 |
| 20260508020024 | 48 | 140 | 12.0 | 17.0 | 0.00 | 0.00 | 0.00 | 87 | 1015.4 |
| 20260508014527 | 48 | 165 | 9.0 | 19.0 | 0.00 | 0.00 | 0.00 | 87 | 1015.4 |
| 20260508013017 | 48 | 161 | 11.0 | 16.0 | 0.00 | 0.00 | 0.00 | 88 | 1015.4 |
| 20260508011517 | 47 | 149 | 10.0 | 16.0 | 0.00 | 0.00 | 0.00 | 89 | 1015.4 |
| 20260508010026 | 47 | 129 | 11.0 | 18.0 | 0.00 | 0.00 | 0.00 | 89 | 1015.5 |
| 20260508004523 | 47 | 129 | 11.0 | 17.0 | 0.00 | 0.00 | 0.00 | 90 | 1015.6 |
| 20260508003012 | 47 | 169 | 10.0 | 18.0 | 0.00 | 0.00 | 0.00 | 90 | 1015.6 |
| 20260508001508 | 47 | 142 | 9.0 | 16.0 | 0.00 | 0.00 | 0.00 | 90 | 1015.7 |
| 20260508000005 | 47 | 131 | 11.0 | 18.0 | 0.00 | 0.00 | 0.00 | 90 | 1015.8 |
| 20260507234505 | 47 | 153 | 9.0 | 14.0 | 0.00 | 0.00 | 0.00 | 90 | 1015.8 |
| 20260507233006 | 48 | 144 | 10.0 | 15.0 | 0.00 | 0.00 | 0.00 | 90 | 1015.8 |
| 20260507231505 | 48 | 159 | 10.0 | 19.0 | 0.00 | 0.00 | 0.00 | 90 | 1015.8 |
| 20260507230004 | 48 | 127 | 10.0 | 18.0 | 0.00 | 0.00 | 0.00 | 90 | 1015.7 |
| 20260507224507 | 47 | 154 | 11.0 | 19.0 | 0.00 | 0.00 | 0.00 | 90 | 1015.7 |
| 20260507223003 | 47 | 134 | 9.0 | 16.0 | 0.00 | 0.00 | 0.00 | 90 | 1015.7 |
| 20260507221502 | 47 | 156 | 11.0 | 17.0 | 0.00 | 0.00 | 0.00 | 89 | 1015.8 |
| 20260507220004 | 47 | 154 | 12.0 | 19.0 | 0.00 | 0.00 | 0.00 | 89 | 1015.8 |
| 20260507214501 | 47 | 142 | 11.0 | 20.0 | 0.00 | 0.00 | 0.00 | 89 | 1015.8 |
| 20260507213002 | 47 | 137 | 12.0 | 21.0 | 0.00 | 0.00 | 0.00 | 89 | 1015.8 |
| 20260507211606 | 47 | 132 | 12.0 | 20.0 | 0.00 | 0.00 | 0.00 | 88 | 1015.8 |
| 20260507210104 | 47 | 173 | 12.0 | 21.0 | 0.00 | 0.00 | 0.00 | 87 | 1015.7 |
| 20260507204601 | 48 | 170 | 11.0 | 18.0 | 0.00 | 0.00 | 0.00 | 87 | 1015.8 |
| 20260507203103 | 48 | 153 | 9.0 | 19.0 | 0.00 | 0.00 | 0.00 | 86 | 1015.7 |
| 20260507201557 | 48 | 175 | 10.0 | 18.0 | 0.00 | 0.00 | 0.00 | 85 | 1015.6 |
| 20260507200058 | 49 | 136 | 8.0 | 15.0 | 0.00 | 0.00 | 0.00 | 84 | 1015.4 |
| 20260507194556 | 49 | 124 | 10.0 | 17.0 | 0.00 | 0.00 | 0.00 | 85 | 1015.2 |
| 20260507193056 | 50 | 150 | 11.0 | 18.0 | 0.00 | 0.00 | 0.00 | 85 | 1015.1 |
| 20260507191558 | 50 | 148 | 7.0 | 15.0 | 0.00 | 0.00 | 0.00 | 85 | 1015.1 |
| 20260507190055 | 50 | 165 | 9.0 | 16.0 | 0.00 | 0.00 | 0.00 | 85 | 1015.0 |
| 20260507184657 | 51 | 174 | 9.0 | 17.0 | 0.00 | 0.00 | 0.00 | 84 | 1014.9 |
| 20260507183054 | 51 | 136 | 7.0 | 15.0 | 0.00 | 0.00 | 0.00 | 84 | 1014.9 |
| 20260507181554 | 51 | 140 | 6.0 | 14.0 | 0.00 | 0.00 | 0.00 | 84 | 1014.8 |
| 20260507180058 | 51 | 144 | 8.0 | 14.0 | 0.00 | 0.00 | 0.00 | 84 | 1014.9 |
| 20260507174603 | 51 | 113 | 7.0 | 17.0 | 0.00 | 0.00 | 0.00 | 84 | 1014.9 |
| 20260507173051 | 51 | 171 | 8.0 | 16.0 | 0.00 | 0.00 | 0.00 | 83 | 1014.9 |
| 20260507171603 | 51 | 126 | 10.0 | 17.0 | 0.00 | 0.00 | 0.00 | 83 | 1014.9 |
| 20260507170048 | 52 | 120 | 9.0 | 15.0 | 0.00 | 0.00 | 0.00 | 82 | 1015.0 |
| 20260507164550 | 52 | 167 | 10.0 | 16.0 | 0.00 | 0.00 | 0.00 | 82 | 1015.2 |
| 20260507163050 | 52 | 114 | 9.0 | 15.0 | 0.00 | 0.00 | 0.00 | 82 | 1015.2 |
| 20260507161547 | 52 | 138 | 7.0 | 14.0 | 0.00 | 0.00 | 0.00 | 83 | 1015.2 |
| 20260507160051 | 51 | 149 | 5.0 | 13.0 | 0.00 | 0.00 | 0.00 | 82 | 1015.3 |
| 20260507154544 | 51 | 113 | 8.0 | 15.0 | 0.00 | 0.00 | 0.00 | 82 | 1015.3 |
| 20260507153046 | 51 | 143 | 9.0 | 16.0 | 0.00 | 0.00 | 0.00 | 81 | 1015.2 |
| 20260507151643 | 52 | 121 | 9.0 | 18.0 | 0.00 | 0.00 | 0.00 | 81 | 1015.3 |
| 20260507150041 | 53 | 139 | 7.0 | 16.0 | 0.00 | 0.00 | 0.00 | 81 | 1015.3 |
| 20260507144540 | 53 | 176 | 8.0 | 14.0 | 0.00 | 0.00 | 0.00 | 79 | 1015.3 |
| 20260507143043 | 54 | 170 | 7.0 | 18.0 | 0.00 | 0.00 | 0.00 | 79 | 1015.4 |
| 20260507141543 | 54 | 99 | 9.0 | 14.0 | 0.00 | 0.00 | 0.00 | 80 | 1015.5 |
| 20260507140038 | 54 | 131 | 5.0 | 17.0 | 0.00 | 0.00 | 0.00 | 79 | 1015.6 |
| 20260507134536 | 54 | 142 | 6.0 | 14.0 | 0.00 | 0.00 | 0.00 | 78 | 1015.6 |
| 20260507133036 | 54 | 138 | 6.0 | 12.0 | 0.00 | 0.00 | 0.00 | 78 | 1015.7 |
| 20260507131537 | 55 | 151 | 6.0 | 11.0 | 0.00 | 0.00 | 0.00 | 75 | 1015.7 |
| 20260507130040 | 56 | 192 | 7.0 | 12.0 | 0.00 | 0.00 | 0.00 | 74 | 1015.6 |
| 20260507124547 | 57 | 139 | 8.0 | 12.0 | 0.00 | 0.00 | 0.00 | 65 | 1015.6 |
| 20260507123031 | 56 | 168 | 7.0 | 16.0 | 0.00 | 0.00 | 0.00 | 67 | 1015.7 |
| 20260507121528 | 56 | 158 | 7.0 | 13.0 | 0.00 | 0.00 | 0.00 | 67 | 1015.8 |